sensor_id;sensor_type;location;lat;lon;timestamp;P1;durP1;ratioP1;P2;durP2;ratioP2
3849;SDS011;1940;51.052;13.678;2022-12-13T00:00:28;11.20;;;6.00;;
3849;SDS011;1940;51.052;13.678;2022-12-13T00:02:54;12.93;;;6.00;;
3849;SDS011;1940;51.052;13.678;2022-12-13T00:05:20;12.03;;;6.40;;
3849;SDS011;1940;51.052;13.678;2022-12-13T00:07:45;13.73;;;5.23;;
3849;SDS011;1940;51.052;13.678;2022-12-13T00:10:11;12.20;;;5.93;;
3849;SDS011;1940;51.052;13.678;2022-12-13T00:12:36;14.43;;;6.73;;
3849;SDS011;1940;51.052;13.678;2022-12-13T00:15:02;9.27;;;5.30;;
3849;SDS011;1940;51.052;13.678;2022-12-13T00:17:30;11.37;;;6.00;;
3849;SDS011;1940;51.052;13.678;2022-12-13T00:19:56;11.00;;;6.13;;
3849;SDS011;1940;51.052;13.678;2022-12-13T00:22:21;11.17;;;5.77;;
3849;SDS011;1940;51.052;13.678;2022-12-13T00:24:47;10.10;;;5.30;;
3849;SDS011;1940;51.052;13.678;2022-12-13T00:27:12;8.97;;;5.27;;
3849;SDS011;1940;51.052;13.678;2022-12-13T00:29:38;11.50;;;6.77;;
3849;SDS011;1940;51.052;13.678;2022-12-13T00:32:03;9.63;;;5.90;;
3849;SDS011;1940;51.052;13.678;2022-12-13T00:34:29;9.10;;;5.63;;
3849;SDS011;1940;51.052;13.678;2022-12-13T00:36:55;8.17;;;5.00;;
3849;SDS011;1940;51.052;13.678;2022-12-13T00:39:23;11.63;;;5.57;;
3849;SDS011;1940;51.052;13.678;2022-12-13T00:41:48;14.43;;;6.13;;
3849;SDS011;1940;51.052;13.678;2022-12-13T00:44:14;12.63;;;6.60;;
3849;SDS011;1940;51.052;13.678;2022-12-13T00:46:40;12.37;;;5.60;;
3849;SDS011;1940;51.052;13.678;2022-12-13T00:49:06;10.30;;;5.53;;
3849;SDS011;1940;51.052;13.678;2022-12-13T00:51:33;9.80;;;5.80;;
3849;SDS011;1940;51.052;13.678;2022-12-13T00:53:59;11.20;;;6.47;;
3849;SDS011;1940;51.052;13.678;2022-12-13T00:56:26;10.80;;;6.13;;
3849;SDS011;1940;51.052;13.678;2022-12-13T00:58:54;9.97;;;5.47;;
3849;SDS011;1940;51.052;13.678;2022-12-13T01:01:21;9.67;;;5.97;;
3849;SDS011;1940;51.052;13.678;2022-12-13T01:03:48;10.53;;;5.90;;
3849;SDS011;1940;51.052;13.678;2022-12-13T01:06:16;13.10;;;6.57;;
3849;SDS011;1940;51.052;13.678;2022-12-13T01:08:43;15.00;;;6.93;;
3849;SDS011;1940;51.052;13.678;2022-12-13T01:11:08;10.80;;;6.17;;
3849;SDS011;1940;51.052;13.678;2022-12-13T01:13:35;12.80;;;6.60;;
3849;SDS011;1940;51.052;13.678;2022-12-13T01:16:02;13.10;;;6.40;;
3849;SDS011;1940;51.052;13.678;2022-12-13T01:18:29;12.80;;;6.40;;
3849;SDS011;1940;51.052;13.678;2022-12-13T01:23:28;11.20;;;6.57;;
3849;SDS011;1940;51.052;13.678;2022-12-13T01:25:54;11.13;;;5.63;;
3849;SDS011;1940;51.052;13.678;2022-12-13T01:28:20;15.53;;;6.20;;
3849;SDS011;1940;51.052;13.678;2022-12-13T01:33:28;11.63;;;5.90;;
3849;SDS011;1940;51.052;13.678;2022-12-13T01:35:54;10.80;;;6.13;;
3849;SDS011;1940;51.052;13.678;2022-12-13T01:38:20;14.83;;;6.77;;
3849;SDS011;1940;51.052;13.678;2022-12-13T01:40:47;14.23;;;7.40;;
3849;SDS011;1940;51.052;13.678;2022-12-13T01:43:23;12.77;;;6.50;;
3849;SDS011;1940;51.052;13.678;2022-12-13T01:45:49;14.93;;;7.03;;
3849;SDS011;1940;51.052;13.678;2022-12-13T01:48:16;12.87;;;6.73;;
3849;SDS011;1940;51.052;13.678;2022-12-13T01:50:48;15.37;;;7.10;;
3849;SDS011;1940;51.052;13.678;2022-12-13T01:53:18;15.80;;;7.43;;
3849;SDS011;1940;51.052;13.678;2022-12-13T01:55:49;12.87;;;7.17;;
3849;SDS011;1940;51.052;13.678;2022-12-13T01:58:17;11.30;;;6.13;;
3849;SDS011;1940;51.052;13.678;2022-12-13T02:00:44;14.80;;;7.23;;
3849;SDS011;1940;51.052;13.678;2022-12-13T02:03:11;13.37;;;7.60;;
3849;SDS011;1940;51.052;13.678;2022-12-13T02:05:44;12.13;;;6.40;;
3849;SDS011;1940;51.052;13.678;2022-12-13T02:08:20;11.50;;;6.50;;
3849;SDS011;1940;51.052;13.678;2022-12-13T02:10:47;12.30;;;6.63;;
3849;SDS011;1940;51.052;13.678;2022-12-13T02:13:12;13.50;;;7.03;;
3849;SDS011;1940;51.052;13.678;2022-12-13T02:27:20;10.10;;;5.67;;
3849;SDS011;1940;51.052;13.678;2022-12-13T02:30:25;12.37;;;6.00;;
3849;SDS011;1940;51.052;13.678;2022-12-13T02:33:04;11.80;;;5.77;;
3849;SDS011;1940;51.052;13.678;2022-12-13T02:35:58;12.57;;;6.93;;
3849;SDS011;1940;51.052;13.678;2022-12-13T02:41:33;13.50;;;7.00;;
3849;SDS011;1940;51.052;13.678;2022-12-13T02:44:16;11.47;;;6.40;;
3849;SDS011;1940;51.052;13.678;2022-12-13T02:46:49;11.60;;;6.43;;
3849;SDS011;1940;51.052;13.678;2022-12-13T02:49:18;13.27;;;5.77;;
3849;SDS011;1940;51.052;13.678;2022-12-13T02:51:46;12.43;;;6.70;;
3849;SDS011;1940;51.052;13.678;2022-12-13T02:54:14;10.70;;;6.13;;
3849;SDS011;1940;51.052;13.678;2022-12-13T02:56:39;9.57;;;5.60;;
3849;SDS011;1940;51.052;13.678;2022-12-13T02:59:08;10.23;;;6.33;;
3849;SDS011;1940;51.052;13.678;2022-12-13T03:07:06;11.60;;;5.70;;
3849;SDS011;1940;51.052;13.678;2022-12-13T03:09:54;14.87;;;5.60;;
3849;SDS011;1940;51.052;13.678;2022-12-13T03:15:20;10.00;;;5.67;;
3849;SDS011;1940;51.052;13.678;2022-12-13T03:20:51;9.40;;;5.33;;
3849;SDS011;1940;51.052;13.678;2022-12-13T03:23:21;10.17;;;5.70;;
3849;SDS011;1940;51.052;13.678;2022-12-13T03:25:48;8.63;;;5.20;;
3849;SDS011;1940;51.052;13.678;2022-12-13T03:28:16;10.60;;;5.60;;
3849;SDS011;1940;51.052;13.678;2022-12-13T03:30:42;12.63;;;6.80;;
3849;SDS011;1940;51.052;13.678;2022-12-13T03:33:07;13.10;;;6.10;;
3849;SDS011;1940;51.052;13.678;2022-12-13T03:35:33;9.60;;;5.50;;
3849;SDS011;1940;51.052;13.678;2022-12-13T03:37:59;10.50;;;5.93;;
3849;SDS011;1940;51.052;13.678;2022-12-13T03:40:26;12.93;;;6.00;;
3849;SDS011;1940;51.052;13.678;2022-12-13T03:42:53;9.03;;;5.63;;
3849;SDS011;1940;51.052;13.678;2022-12-13T03:45:18;13.60;;;6.40;;
3849;SDS011;1940;51.052;13.678;2022-12-13T03:47:44;12.60;;;6.03;;
3849;SDS011;1940;51.052;13.678;2022-12-13T03:50:10;12.13;;;7.00;;
3849;SDS011;1940;51.052;13.678;2022-12-13T03:52:36;20.33;;;6.40;;
3849;SDS011;1940;51.052;13.678;2022-12-13T03:55:01;13.20;;;7.03;;
3849;SDS011;1940;51.052;13.678;2022-12-13T03:57:27;11.50;;;6.37;;
3849;SDS011;1940;51.052;13.678;2022-12-13T03:59:53;12.00;;;6.60;;
3849;SDS011;1940;51.052;13.678;2022-12-13T04:02:18;10.83;;;6.30;;
3849;SDS011;1940;51.052;13.678;2022-12-13T04:04:44;13.90;;;6.60;;
3849;SDS011;1940;51.052;13.678;2022-12-13T04:07:09;12.60;;;6.73;;
3849;SDS011;1940;51.052;13.678;2022-12-13T04:09:35;14.10;;;6.47;;
3849;SDS011;1940;51.052;13.678;2022-12-13T04:12:00;12.03;;;7.07;;
3849;SDS011;1940;51.052;13.678;2022-12-13T04:14:44;12.20;;;6.57;;
3849;SDS011;1940;51.052;13.678;2022-12-13T04:17:10;13.20;;;6.53;;
3849;SDS011;1940;51.052;13.678;2022-12-13T04:19:35;13.30;;;6.67;;
3849;SDS011;1940;51.052;13.678;2022-12-13T04:22:01;12.70;;;6.93;;
3849;SDS011;1940;51.052;13.678;2022-12-13T04:24:26;11.80;;;6.90;;
3849;SDS011;1940;51.052;13.678;2022-12-13T04:26:52;12.90;;;7.23;;
3849;SDS011;1940;51.052;13.678;2022-12-13T04:29:17;14.40;;;7.63;;
3849;SDS011;1940;51.052;13.678;2022-12-13T04:31:43;12.73;;;7.63;;
3849;SDS011;1940;51.052;13.678;2022-12-13T04:34:08;14.60;;;7.40;;
3849;SDS011;1940;51.052;13.678;2022-12-13T04:36:34;14.43;;;7.17;;
3849;SDS011;1940;51.052;13.678;2022-12-13T04:39:00;16.07;;;6.70;;
3849;SDS011;1940;51.052;13.678;2022-12-13T04:41:26;13.57;;;7.10;;
3849;SDS011;1940;51.052;13.678;2022-12-13T04:43:52;20.67;;;8.90;;
3849;SDS011;1940;51.052;13.678;2022-12-13T04:46:18;17.93;;;8.20;;
3849;SDS011;1940;51.052;13.678;2022-12-13T04:48:46;16.73;;;7.80;;
3849;SDS011;1940;51.052;13.678;2022-12-13T04:51:11;14.17;;;7.10;;
3849;SDS011;1940;51.052;13.678;2022-12-13T04:53:37;14.13;;;6.83;;
3849;SDS011;1940;51.052;13.678;2022-12-13T04:56:03;14.47;;;6.80;;
3849;SDS011;1940;51.052;13.678;2022-12-13T04:58:29;13.80;;;6.17;;
3849;SDS011;1940;51.052;13.678;2022-12-13T05:00:55;12.33;;;6.03;;
3849;SDS011;1940;51.052;13.678;2022-12-13T05:03:21;15.27;;;6.60;;
3849;SDS011;1940;51.052;13.678;2022-12-13T05:05:47;14.57;;;6.17;;
3849;SDS011;1940;51.052;13.678;2022-12-13T05:08:13;13.10;;;7.10;;
3849;SDS011;1940;51.052;13.678;2022-12-13T05:10:39;13.27;;;6.43;;
3849;SDS011;1940;51.052;13.678;2022-12-13T05:13:05;15.10;;;7.43;;
3849;SDS011;1940;51.052;13.678;2022-12-13T05:15:31;22.43;;;7.70;;
3849;SDS011;1940;51.052;13.678;2022-12-13T05:18:01;12.30;;;6.70;;
3849;SDS011;1940;51.052;13.678;2022-12-13T05:20:30;14.23;;;6.90;;
3849;SDS011;1940;51.052;13.678;2022-12-13T05:22:56;14.03;;;6.13;;
3849;SDS011;1940;51.052;13.678;2022-12-13T05:25:22;11.23;;;6.03;;
3849;SDS011;1940;51.052;13.678;2022-12-13T05:27:48;14.17;;;7.27;;
3849;SDS011;1940;51.052;13.678;2022-12-13T05:30:14;13.40;;;6.70;;
3849;SDS011;1940;51.052;13.678;2022-12-13T05:32:39;12.50;;;6.40;;
3849;SDS011;1940;51.052;13.678;2022-12-13T05:35:05;17.23;;;7.53;;
3849;SDS011;1940;51.052;13.678;2022-12-13T05:37:34;14.50;;;7.20;;
3849;SDS011;1940;51.052;13.678;2022-12-13T05:39:59;12.87;;;7.10;;
3849;SDS011;1940;51.052;13.678;2022-12-13T05:42:25;13.33;;;7.50;;
3849;SDS011;1940;51.052;13.678;2022-12-13T05:44:52;18.40;;;8.33;;
3849;SDS011;1940;51.052;13.678;2022-12-13T05:47:18;15.33;;;7.53;;
3849;SDS011;1940;51.052;13.678;2022-12-13T05:49:44;11.23;;;6.60;;
3849;SDS011;1940;51.052;13.678;2022-12-13T05:52:19;13.90;;;6.77;;
3849;SDS011;1940;51.052;13.678;2022-12-13T05:54:45;14.97;;;7.43;;
3849;SDS011;1940;51.052;13.678;2022-12-13T05:57:11;12.90;;;6.00;;
3849;SDS011;1940;51.052;13.678;2022-12-13T05:59:37;13.23;;;6.80;;
3849;SDS011;1940;51.052;13.678;2022-12-13T06:02:03;10.90;;;6.00;;
3849;SDS011;1940;51.052;13.678;2022-12-13T06:04:29;12.70;;;5.67;;
3849;SDS011;1940;51.052;13.678;2022-12-13T06:06:54;10.60;;;5.67;;
3849;SDS011;1940;51.052;13.678;2022-12-13T06:09:20;11.00;;;5.70;;
3849;SDS011;1940;51.052;13.678;2022-12-13T06:11:46;13.20;;;6.40;;
3849;SDS011;1940;51.052;13.678;2022-12-13T06:14:12;12.83;;;6.70;;
3849;SDS011;1940;51.052;13.678;2022-12-13T06:16:38;11.43;;;6.30;;
3849;SDS011;1940;51.052;13.678;2022-12-13T06:19:04;12.90;;;6.80;;
3849;SDS011;1940;51.052;13.678;2022-12-13T06:21:30;9.17;;;5.80;;
3849;SDS011;1940;51.052;13.678;2022-12-13T06:23:56;11.63;;;6.13;;
3849;SDS011;1940;51.052;13.678;2022-12-13T06:26:21;14.10;;;7.20;;
3849;SDS011;1940;51.052;13.678;2022-12-13T06:28:47;14.00;;;7.43;;
3849;SDS011;1940;51.052;13.678;2022-12-13T06:31:12;12.47;;;6.67;;
3849;SDS011;1940;51.052;13.678;2022-12-13T06:33:39;10.87;;;5.93;;
3849;SDS011;1940;51.052;13.678;2022-12-13T06:36:05;11.17;;;5.80;;
3849;SDS011;1940;51.052;13.678;2022-12-13T06:38:31;13.20;;;6.70;;
3849;SDS011;1940;51.052;13.678;2022-12-13T06:41:09;15.13;;;7.90;;
3849;SDS011;1940;51.052;13.678;2022-12-13T06:43:37;11.70;;;5.77;;
3849;SDS011;1940;51.052;13.678;2022-12-13T06:46:06;9.77;;;5.30;;
3849;SDS011;1940;51.052;13.678;2022-12-13T06:48:32;13.20;;;6.83;;
3849;SDS011;1940;51.052;13.678;2022-12-13T06:51:01;14.77;;;6.20;;
3849;SDS011;1940;51.052;13.678;2022-12-13T06:53:30;15.17;;;6.63;;
3849;SDS011;1940;51.052;13.678;2022-12-13T06:55:55;13.17;;;6.20;;
3849;SDS011;1940;51.052;13.678;2022-12-13T06:58:21;18.97;;;5.63;;
3849;SDS011;1940;51.052;13.678;2022-12-13T07:00:47;15.87;;;5.83;;
3849;SDS011;1940;51.052;13.678;2022-12-13T07:03:14;30.23;;;7.77;;
3849;SDS011;1940;51.052;13.678;2022-12-13T07:05:39;21.80;;;7.23;;
3849;SDS011;1940;51.052;13.678;2022-12-13T07:08:05;23.70;;;7.10;;
3849;SDS011;1940;51.052;13.678;2022-12-13T07:10:31;15.43;;;6.40;;
3849;SDS011;1940;51.052;13.678;2022-12-13T07:12:57;24.50;;;6.80;;
3849;SDS011;1940;51.052;13.678;2022-12-13T07:15:22;17.90;;;6.30;;
3849;SDS011;1940;51.052;13.678;2022-12-13T07:17:48;11.87;;;6.37;;
3849;SDS011;1940;51.052;13.678;2022-12-13T07:20:15;20.37;;;6.43;;
3849;SDS011;1940;51.052;13.678;2022-12-13T07:22:40;26.33;;;6.60;;
3849;SDS011;1940;51.052;13.678;2022-12-13T07:25:06;15.03;;;6.70;;
3849;SDS011;1940;51.052;13.678;2022-12-13T07:27:33;13.07;;;6.43;;
3849;SDS011;1940;51.052;13.678;2022-12-13T07:29:59;16.27;;;6.93;;
3849;SDS011;1940;51.052;13.678;2022-12-13T07:32:25;12.23;;;6.90;;
3849;SDS011;1940;51.052;13.678;2022-12-13T07:34:50;17.63;;;6.80;;
3849;SDS011;1940;51.052;13.678;2022-12-13T07:37:16;17.17;;;6.37;;
3849;SDS011;1940;51.052;13.678;2022-12-13T07:39:42;15.07;;;5.60;;
3849;SDS011;1940;51.052;13.678;2022-12-13T07:42:07;12.43;;;5.47;;
3849;SDS011;1940;51.052;13.678;2022-12-13T07:44:33;12.10;;;6.37;;
3849;SDS011;1940;51.052;13.678;2022-12-13T07:46:59;12.30;;;5.97;;
3849;SDS011;1940;51.052;13.678;2022-12-13T07:49:24;13.00;;;5.83;;
3849;SDS011;1940;51.052;13.678;2022-12-13T07:51:50;11.00;;;5.83;;
3849;SDS011;1940;51.052;13.678;2022-12-13T07:54:16;7.93;;;5.30;;
3849;SDS011;1940;51.052;13.678;2022-12-13T07:56:41;7.63;;;4.70;;
3849;SDS011;1940;51.052;13.678;2022-12-13T07:59:08;8.27;;;5.47;;
3849;SDS011;1940;51.052;13.678;2022-12-13T08:01:34;9.70;;;5.23;;
3849;SDS011;1940;51.052;13.678;2022-12-13T08:04:00;12.37;;;6.20;;
3849;SDS011;1940;51.052;13.678;2022-12-13T08:06:26;12.73;;;6.40;;
3849;SDS011;1940;51.052;13.678;2022-12-13T08:08:55;14.60;;;7.40;;
3849;SDS011;1940;51.052;13.678;2022-12-13T08:11:23;12.33;;;6.93;;
3849;SDS011;1940;51.052;13.678;2022-12-13T08:13:48;14.53;;;7.20;;
3849;SDS011;1940;51.052;13.678;2022-12-13T08:16:15;11.00;;;5.90;;
3849;SDS011;1940;51.052;13.678;2022-12-13T08:18:42;17.60;;;6.40;;
3849;SDS011;1940;51.052;13.678;2022-12-13T08:21:08;9.13;;;4.80;;
3849;SDS011;1940;51.052;13.678;2022-12-13T08:23:34;11.67;;;6.43;;
3849;SDS011;1940;51.052;13.678;2022-12-13T08:26:01;12.27;;;6.20;;
3849;SDS011;1940;51.052;13.678;2022-12-13T08:28:28;11.93;;;6.10;;
3849;SDS011;1940;51.052;13.678;2022-12-13T08:31:00;9.60;;;6.27;;
3849;SDS011;1940;51.052;13.678;2022-12-13T08:33:30;14.97;;;6.73;;
3849;SDS011;1940;51.052;13.678;2022-12-13T08:35:57;12.33;;;6.37;;
3849;SDS011;1940;51.052;13.678;2022-12-13T08:38:31;10.60;;;6.20;;
3849;SDS011;1940;51.052;13.678;2022-12-13T08:40:57;11.40;;;5.87;;
3849;SDS011;1940;51.052;13.678;2022-12-13T08:43:23;13.10;;;6.17;;
3849;SDS011;1940;51.052;13.678;2022-12-13T08:45:49;12.47;;;5.73;;
3849;SDS011;1940;51.052;13.678;2022-12-13T08:48:14;12.83;;;6.10;;
3849;SDS011;1940;51.052;13.678;2022-12-13T08:50:40;11.10;;;6.13;;
3849;SDS011;1940;51.052;13.678;2022-12-13T08:53:05;11.60;;;5.83;;
3849;SDS011;1940;51.052;13.678;2022-12-13T08:55:31;12.87;;;5.37;;
3849;SDS011;1940;51.052;13.678;2022-12-13T08:57:56;9.93;;;5.83;;
3849;SDS011;1940;51.052;13.678;2022-12-13T09:00:22;12.17;;;6.10;;
3849;SDS011;1940;51.052;13.678;2022-12-13T09:02:47;9.53;;;5.27;;
3849;SDS011;1940;51.052;13.678;2022-12-13T09:05:13;10.53;;;6.13;;
3849;SDS011;1940;51.052;13.678;2022-12-13T09:07:39;12.67;;;6.80;;
3849;SDS011;1940;51.052;13.678;2022-12-13T09:10:07;13.97;;;6.90;;
3849;SDS011;1940;51.052;13.678;2022-12-13T09:12:33;9.93;;;5.80;;
3849;SDS011;1940;51.052;13.678;2022-12-13T09:14:59;9.03;;;5.10;;
3849;SDS011;1940;51.052;13.678;2022-12-13T09:17:25;9.23;;;5.63;;
3849;SDS011;1940;51.052;13.678;2022-12-13T09:19:51;12.10;;;6.53;;
3849;SDS011;1940;51.052;13.678;2022-12-13T09:22:17;11.27;;;6.60;;
3849;SDS011;1940;51.052;13.678;2022-12-13T09:24:45;12.10;;;6.30;;
3849;SDS011;1940;51.052;13.678;2022-12-13T09:27:10;11.73;;;6.97;;
3849;SDS011;1940;51.052;13.678;2022-12-13T09:29:36;14.87;;;8.00;;
3849;SDS011;1940;51.052;13.678;2022-12-13T09:32:03;15.50;;;7.67;;
3849;SDS011;1940;51.052;13.678;2022-12-13T09:34:29;11.50;;;7.00;;
3849;SDS011;1940;51.052;13.678;2022-12-13T09:36:56;12.27;;;7.23;;
3849;SDS011;1940;51.052;13.678;2022-12-13T09:39:22;14.87;;;8.07;;
3849;SDS011;1940;51.052;13.678;2022-12-13T09:41:57;14.40;;;8.30;;
3849;SDS011;1940;51.052;13.678;2022-12-13T09:44:24;14.17;;;8.40;;
3849;SDS011;1940;51.052;13.678;2022-12-13T09:46:52;13.27;;;7.50;;
3849;SDS011;1940;51.052;13.678;2022-12-13T09:51:46;12.83;;;7.63;;
3849;SDS011;1940;51.052;13.678;2022-12-13T09:54:17;12.17;;;7.50;;
3849;SDS011;1940;51.052;13.678;2022-12-13T09:56:44;13.43;;;7.63;;
3849;SDS011;1940;51.052;13.678;2022-12-13T09:59:14;16.17;;;8.00;;
3849;SDS011;1940;51.052;13.678;2022-12-13T10:01:41;19.53;;;8.47;;
3849;SDS011;1940;51.052;13.678;2022-12-13T10:04:07;15.03;;;8.60;;
3849;SDS011;1940;51.052;13.678;2022-12-13T10:06:37;15.77;;;8.80;;
3849;SDS011;1940;51.052;13.678;2022-12-13T10:09:02;17.70;;;8.90;;
3849;SDS011;1940;51.052;13.678;2022-12-13T10:11:33;17.13;;;10.07;;
3849;SDS011;1940;51.052;13.678;2022-12-13T10:14:09;15.70;;;9.23;;
3849;SDS011;1940;51.052;13.678;2022-12-13T10:16:46;15.90;;;8.93;;
3849;SDS011;1940;51.052;13.678;2022-12-13T10:21:59;15.70;;;8.60;;
3849;SDS011;1940;51.052;13.678;2022-12-13T10:24:29;16.33;;;8.17;;
3849;SDS011;1940;51.052;13.678;2022-12-13T10:27:14;15.30;;;8.90;;
3849;SDS011;1940;51.052;13.678;2022-12-13T10:29:55;16.47;;;8.73;;
3849;SDS011;1940;51.052;13.678;2022-12-13T10:32:26;20.93;;;9.30;;
3849;SDS011;1940;51.052;13.678;2022-12-13T10:34:51;27.80;;;7.70;;
3849;SDS011;1940;51.052;13.678;2022-12-13T10:37:27;19.97;;;9.83;;
3849;SDS011;1940;51.052;13.678;2022-12-13T10:39:54;16.63;;;10.03;;
3849;SDS011;1940;51.052;13.678;2022-12-13T10:42:20;17.80;;;9.90;;
3849;SDS011;1940;51.052;13.678;2022-12-13T10:44:47;16.60;;;9.00;;
3849;SDS011;1940;51.052;13.678;2022-12-13T10:47:21;17.73;;;10.00;;
3849;SDS011;1940;51.052;13.678;2022-12-13T10:49:51;20.67;;;10.57;;
3849;SDS011;1940;51.052;13.678;2022-12-13T10:54:52;13.97;;;8.90;;
3849;SDS011;1940;51.052;13.678;2022-12-13T10:57:18;17.90;;;9.90;;
3849;SDS011;1940;51.052;13.678;2022-12-13T10:59:45;18.57;;;11.40;;
3849;SDS011;1940;51.052;13.678;2022-12-13T11:04:57;19.50;;;10.70;;
3849;SDS011;1940;51.052;13.678;2022-12-13T11:07:26;20.40;;;11.40;;
3849;SDS011;1940;51.052;13.678;2022-12-13T11:09:54;17.97;;;10.70;;
3849;SDS011;1940;51.052;13.678;2022-12-13T11:12:21;20.63;;;11.60;;
3849;SDS011;1940;51.052;13.678;2022-12-13T11:14:56;17.90;;;10.47;;
3849;SDS011;1940;51.052;13.678;2022-12-13T11:17:25;17.20;;;10.33;;
3849;SDS011;1940;51.052;13.678;2022-12-13T11:22:27;17.73;;;10.93;;
3849;SDS011;1940;51.052;13.678;2022-12-13T11:25:29;23.23;;;11.50;;
3849;SDS011;1940;51.052;13.678;2022-12-13T11:28:02;26.00;;;14.70;;
3849;SDS011;1940;51.052;13.678;2022-12-13T11:30:58;28.17;;;11.93;;
3849;SDS011;1940;51.052;13.678;2022-12-13T11:36:40;19.73;;;11.23;;
3849;SDS011;1940;51.052;13.678;2022-12-13T11:44:58;16.90;;;10.13;;
3849;SDS011;1940;51.052;13.678;2022-12-13T11:47:38;16.40;;;10.47;;
3849;SDS011;1940;51.052;13.678;2022-12-13T11:50:17;18.10;;;9.57;;
3849;SDS011;1940;51.052;13.678;2022-12-13T11:53:16;16.30;;;9.50;;
3849;SDS011;1940;51.052;13.678;2022-12-13T11:55:48;18.73;;;10.47;;
3849;SDS011;1940;51.052;13.678;2022-12-13T11:58:41;18.97;;;10.13;;
3849;SDS011;1940;51.052;13.678;2022-12-13T12:01:15;14.47;;;8.60;;
3849;SDS011;1940;51.052;13.678;2022-12-13T12:03:46;15.13;;;9.00;;
3849;SDS011;1940;51.052;13.678;2022-12-13T12:06:21;15.60;;;9.80;;
3849;SDS011;1940;51.052;13.678;2022-12-13T12:08:59;16.83;;;8.57;;
3849;SDS011;1940;51.052;13.678;2022-12-13T12:11:33;16.70;;;8.67;;
3849;SDS011;1940;51.052;13.678;2022-12-13T12:14:21;16.20;;;8.47;;
3849;SDS011;1940;51.052;13.678;2022-12-13T12:16:58;15.70;;;8.20;;
3849;SDS011;1940;51.052;13.678;2022-12-13T12:19:26;15.03;;;7.80;;
3849;SDS011;1940;51.052;13.678;2022-12-13T12:24:46;17.17;;;8.30;;
3849;SDS011;1940;51.052;13.678;2022-12-13T12:27:43;15.37;;;7.83;;
3849;SDS011;1940;51.052;13.678;2022-12-13T12:30:22;15.30;;;7.90;;
3849;SDS011;1940;51.052;13.678;2022-12-13T12:41:16;16.07;;;7.00;;
3849;SDS011;1940;51.052;13.678;2022-12-13T12:44:11;15.83;;;7.70;;
3849;SDS011;1940;51.052;13.678;2022-12-13T12:47:02;14.67;;;7.27;;
3849;SDS011;1940;51.052;13.678;2022-12-13T12:49:57;12.63;;;7.00;;
3849;SDS011;1940;51.052;13.678;2022-12-13T12:59:00;13.50;;;6.70;;
3849;SDS011;1940;51.052;13.678;2022-12-13T13:04:24;15.03;;;7.40;;
3849;SDS011;1940;51.052;13.678;2022-12-13T13:07:05;13.10;;;6.30;;
3849;SDS011;1940;51.052;13.678;2022-12-13T13:09:40;9.63;;;5.87;;
3849;SDS011;1940;51.052;13.678;2022-12-13T13:12:06;11.60;;;6.17;;
3849;SDS011;1940;51.052;13.678;2022-12-13T13:14:35;13.00;;;7.00;;
3849;SDS011;1940;51.052;13.678;2022-12-13T13:22:55;13.93;;;6.73;;
3849;SDS011;1940;51.052;13.678;2022-12-13T13:25:28;13.00;;;6.67;;
3849;SDS011;1940;51.052;13.678;2022-12-13T13:28:00;13.47;;;7.03;;
3849;SDS011;1940;51.052;13.678;2022-12-13T13:31:01;11.03;;;5.77;;
3849;SDS011;1940;51.052;13.678;2022-12-13T13:33:43;13.63;;;6.83;;
3849;SDS011;1940;51.052;13.678;2022-12-13T13:39:03;10.93;;;5.77;;
3849;SDS011;1940;51.052;13.678;2022-12-13T13:41:52;13.80;;;6.90;;
3849;SDS011;1940;51.052;13.678;2022-12-13T13:47:10;12.73;;;6.47;;
3849;SDS011;1940;51.052;13.678;2022-12-13T13:50:03;11.87;;;6.70;;
3849;SDS011;1940;51.052;13.678;2022-12-13T14:01:46;10.90;;;5.50;;
3849;SDS011;1940;51.052;13.678;2022-12-13T14:04:51;10.70;;;5.20;;
3849;SDS011;1940;51.052;13.678;2022-12-13T14:12:57;11.53;;;5.60;;
3849;SDS011;1940;51.052;13.678;2022-12-13T14:21:20;12.23;;;6.03;;
3849;SDS011;1940;51.052;13.678;2022-12-13T14:23:58;11.23;;;6.10;;
3849;SDS011;1940;51.052;13.678;2022-12-13T14:26:37;13.70;;;6.27;;
3849;SDS011;1940;51.052;13.678;2022-12-13T14:29:21;11.30;;;6.30;;
3849;SDS011;1940;51.052;13.678;2022-12-13T14:31:52;13.00;;;6.70;;
3849;SDS011;1940;51.052;13.678;2022-12-13T14:34:28;18.90;;;7.67;;
3849;SDS011;1940;51.052;13.678;2022-12-13T14:37:00;15.00;;;6.50;;
3849;SDS011;1940;51.052;13.678;2022-12-13T14:39:30;21.90;;;7.00;;
3849;SDS011;1940;51.052;13.678;2022-12-13T14:41:59;17.20;;;6.53;;
3849;SDS011;1940;51.052;13.678;2022-12-13T14:44:30;14.50;;;7.60;;
3849;SDS011;1940;51.052;13.678;2022-12-13T14:47:06;15.87;;;7.37;;
3849;SDS011;1940;51.052;13.678;2022-12-13T14:49:35;14.77;;;7.40;;
3849;SDS011;1940;51.052;13.678;2022-12-13T14:52:20;15.20;;;7.97;;
3849;SDS011;1940;51.052;13.678;2022-12-13T14:54:58;11.93;;;7.50;;
3849;SDS011;1940;51.052;13.678;2022-12-13T14:57:25;21.07;;;8.30;;
3849;SDS011;1940;51.052;13.678;2022-12-13T14:59:53;14.60;;;7.17;;
3849;SDS011;1940;51.052;13.678;2022-12-13T15:02:22;13.83;;;6.47;;
3849;SDS011;1940;51.052;13.678;2022-12-13T15:04:54;17.73;;;7.40;;
3849;SDS011;1940;51.052;13.678;2022-12-13T15:09:54;14.83;;;7.07;;
3849;SDS011;1940;51.052;13.678;2022-12-13T15:12:22;12.90;;;6.70;;
3849;SDS011;1940;51.052;13.678;2022-12-13T15:14:50;14.03;;;7.43;;
3849;SDS011;1940;51.052;13.678;2022-12-13T15:17:24;13.97;;;7.43;;
3849;SDS011;1940;51.052;13.678;2022-12-13T15:19:53;12.37;;;7.30;;
3849;SDS011;1940;51.052;13.678;2022-12-13T15:22:18;13.00;;;6.87;;
3849;SDS011;1940;51.052;13.678;2022-12-13T15:24:44;17.47;;;7.23;;
3849;SDS011;1940;51.052;13.678;2022-12-13T15:27:17;16.37;;;8.17;;
3849;SDS011;1940;51.052;13.678;2022-12-13T15:29:45;16.87;;;7.87;;
3849;SDS011;1940;51.052;13.678;2022-12-13T15:32:16;22.07;;;8.73;;
3849;SDS011;1940;51.052;13.678;2022-12-13T15:34:47;15.03;;;8.47;;
3849;SDS011;1940;51.052;13.678;2022-12-13T15:40:11;21.93;;;8.57;;
3849;SDS011;1940;51.052;13.678;2022-12-13T15:42:38;19.30;;;8.17;;
3849;SDS011;1940;51.052;13.678;2022-12-13T15:45:18;20.00;;;8.43;;
3849;SDS011;1940;51.052;13.678;2022-12-13T15:47:48;17.03;;;8.17;;
3849;SDS011;1940;51.052;13.678;2022-12-13T15:50:34;15.77;;;8.13;;
3849;SDS011;1940;51.052;13.678;2022-12-13T15:53:03;22.73;;;8.77;;
3849;SDS011;1940;51.052;13.678;2022-12-13T15:55:49;12.00;;;6.83;;
3849;SDS011;1940;51.052;13.678;2022-12-13T15:58:25;16.60;;;8.27;;
3849;SDS011;1940;51.052;13.678;2022-12-13T16:00:59;18.43;;;8.67;;
3849;SDS011;1940;51.052;13.678;2022-12-13T16:03:50;15.90;;;7.97;;
3849;SDS011;1940;51.052;13.678;2022-12-13T16:06:18;15.00;;;7.50;;
3849;SDS011;1940;51.052;13.678;2022-12-13T16:08:47;14.10;;;7.13;;
3849;SDS011;1940;51.052;13.678;2022-12-13T16:11:15;15.20;;;8.40;;
3849;SDS011;1940;51.052;13.678;2022-12-13T16:13:51;17.93;;;8.53;;
3849;SDS011;1940;51.052;13.678;2022-12-13T16:16:21;13.90;;;8.20;;
3849;SDS011;1940;51.052;13.678;2022-12-13T16:18:56;17.77;;;8.20;;
3849;SDS011;1940;51.052;13.678;2022-12-13T16:21:23;14.83;;;8.37;;
3849;SDS011;1940;51.052;13.678;2022-12-13T16:23:50;15.63;;;8.43;;
3849;SDS011;1940;51.052;13.678;2022-12-13T16:26:28;19.70;;;8.50;;
3849;SDS011;1940;51.052;13.678;2022-12-13T16:28:54;23.53;;;10.07;;
3849;SDS011;1940;51.052;13.678;2022-12-13T16:31:24;20.77;;;9.83;;
3849;SDS011;1940;51.052;13.678;2022-12-13T16:33:53;23.93;;;9.53;;
3849;SDS011;1940;51.052;13.678;2022-12-13T16:36:18;22.27;;;10.13;;
3849;SDS011;1940;51.052;13.678;2022-12-13T16:38:44;22.13;;;9.07;;
3849;SDS011;1940;51.052;13.678;2022-12-13T16:41:10;19.47;;;9.70;;
3849;SDS011;1940;51.052;13.678;2022-12-13T16:43:37;29.53;;;10.40;;
3849;SDS011;1940;51.052;13.678;2022-12-13T16:46:08;20.90;;;9.17;;
3849;SDS011;1940;51.052;13.678;2022-12-13T16:48:36;16.87;;;8.67;;
3849;SDS011;1940;51.052;13.678;2022-12-13T16:51:02;18.63;;;8.73;;
3849;SDS011;1940;51.052;13.678;2022-12-13T16:53:29;18.60;;;9.30;;